sensor_id;sensor_type;location;lat;lon;timestamp;P1;durP1;ratioP1;P2;durP2;ratioP2
8572;SDS011;4324;42.012;24.872;2023-05-10T00:01:36;6.60;;;4.73;;
8572;SDS011;4324;42.012;24.872;2023-05-10T00:04:03;6.17;;;4.73;;
8572;SDS011;4324;42.012;24.872;2023-05-10T00:06:30;5.40;;;4.90;;
8572;SDS011;4324;42.012;24.872;2023-05-10T00:08:58;7.67;;;4.97;;
8572;SDS011;4324;42.012;24.872;2023-05-10T00:11:25;5.93;;;4.63;;
8572;SDS011;4324;42.012;24.872;2023-05-10T00:13:51;5.23;;;4.73;;
8572;SDS011;4324;42.012;24.872;2023-05-10T00:16:18;5.30;;;4.80;;
8572;SDS011;4324;42.012;24.872;2023-05-10T00:18:47;7.63;;;5.27;;
8572;SDS011;4324;42.012;24.872;2023-05-10T00:21:14;6.07;;;5.03;;
8572;SDS011;4324;42.012;24.872;2023-05-10T00:23:41;5.23;;;4.83;;
8572;SDS011;4324;42.012;24.872;2023-05-10T00:26:08;7.73;;;5.37;;
8572;SDS011;4324;42.012;24.872;2023-05-10T00:28:35;5.13;;;4.63;;
8572;SDS011;4324;42.012;24.872;2023-05-10T00:31:02;7.73;;;5.10;;
8572;SDS011;4324;42.012;24.872;2023-05-10T00:33:29;8.53;;;5.03;;
8572;SDS011;4324;42.012;24.872;2023-05-10T00:35:57;7.50;;;5.50;;
8572;SDS011;4324;42.012;24.872;2023-05-10T00:38:24;5.90;;;5.30;;
8572;SDS011;4324;42.012;24.872;2023-05-10T00:40:51;7.30;;;5.47;;
8572;SDS011;4324;42.012;24.872;2023-05-10T00:43:18;7.00;;;5.43;;
8572;SDS011;4324;42.012;24.872;2023-05-10T00:45:45;6.20;;;5.50;;
8572;SDS011;4324;42.012;24.872;2023-05-10T00:48:12;6.67;;;6.00;;
8572;SDS011;4324;42.012;24.872;2023-05-10T00:50:39;6.17;;;5.13;;
8572;SDS011;4324;42.012;24.872;2023-05-10T00:53:08;6.00;;;5.20;;
8572;SDS011;4324;42.012;24.872;2023-05-10T00:55:35;6.67;;;5.60;;
8572;SDS011;4324;42.012;24.872;2023-05-10T00:58:03;6.73;;;5.23;;
8572;SDS011;4324;42.012;24.872;2023-05-10T01:00:32;5.80;;;5.30;;
8572;SDS011;4324;42.012;24.872;2023-05-10T01:02:59;6.67;;;5.07;;
8572;SDS011;4324;42.012;24.872;2023-05-10T01:05:26;7.43;;;5.57;;
8572;SDS011;4324;42.012;24.872;2023-05-10T01:07:53;4.97;;;4.47;;
8572;SDS011;4324;42.012;24.872;2023-05-10T01:10:22;6.80;;;5.37;;
8572;SDS011;4324;42.012;24.872;2023-05-10T01:12:49;7.10;;;5.10;;
8572;SDS011;4324;42.012;24.872;2023-05-10T01:15:16;6.10;;;5.50;;
8572;SDS011;4324;42.012;24.872;2023-05-10T01:17:44;8.90;;;6.17;;
8572;SDS011;4324;42.012;24.872;2023-05-10T01:20:13;6.83;;;5.50;;
8572;SDS011;4324;42.012;24.872;2023-05-10T01:32:09;7.43;;;5.57;;
8572;SDS011;4324;42.012;24.872;2023-05-10T01:34:45;8.27;;;6.33;;
8572;SDS011;4324;42.012;24.872;2023-05-10T01:37:20;7.53;;;6.23;;
8572;SDS011;4324;42.012;24.872;2023-05-10T01:39:53;7.80;;;6.37;;
8572;SDS011;4324;42.012;24.872;2023-05-10T01:42:30;7.20;;;5.83;;
8572;SDS011;4324;42.012;24.872;2023-05-10T01:45:06;7.07;;;6.30;;
8572;SDS011;4324;42.012;24.872;2023-05-10T01:47:43;6.50;;;5.87;;
8572;SDS011;4324;42.012;24.872;2023-05-10T01:50:14;6.47;;;5.87;;
8572;SDS011;4324;42.012;24.872;2023-05-10T01:52:45;9.60;;;6.80;;
8572;SDS011;4324;42.012;24.872;2023-05-10T01:55:18;7.00;;;5.77;;
8572;SDS011;4324;42.012;24.872;2023-05-10T01:57:46;6.07;;;5.53;;
8572;SDS011;4324;42.012;24.872;2023-05-10T02:00:17;7.53;;;6.37;;
8572;SDS011;4324;42.012;24.872;2023-05-10T02:02:48;8.90;;;6.13;;
8572;SDS011;4324;42.012;24.872;2023-05-10T02:05:16;6.80;;;5.83;;
8572;SDS011;4324;42.012;24.872;2023-05-10T02:07:45;6.83;;;5.73;;
8572;SDS011;4324;42.012;24.872;2023-05-10T02:10:13;11.77;;;6.47;;
8572;SDS011;4324;42.012;24.872;2023-05-10T02:12:42;8.47;;;6.47;;
8572;SDS011;4324;42.012;24.872;2023-05-10T02:15:12;8.43;;;7.23;;
8572;SDS011;4324;42.012;24.872;2023-05-10T02:17:44;9.63;;;7.43;;
8572;SDS011;4324;42.012;24.872;2023-05-10T02:20:15;7.93;;;6.50;;
8572;SDS011;4324;42.012;24.872;2023-05-10T02:22:45;10.13;;;7.67;;
8572;SDS011;4324;42.012;24.872;2023-05-10T02:25:13;9.40;;;8.30;;
8572;SDS011;4324;42.012;24.872;2023-05-10T02:27:41;8.07;;;7.10;;
8572;SDS011;4324;42.012;24.872;2023-05-10T02:30:10;8.77;;;7.80;;
8572;SDS011;4324;42.012;24.872;2023-05-10T02:32:38;8.10;;;7.30;;
8572;SDS011;4324;42.012;24.872;2023-05-10T02:35:08;9.80;;;8.30;;
8572;SDS011;4324;42.012;24.872;2023-05-10T02:37:36;10.10;;;8.73;;
8572;SDS011;4324;42.012;24.872;2023-05-10T02:40:05;10.17;;;9.10;;
8572;SDS011;4324;42.012;24.872;2023-05-10T02:42:35;11.47;;;8.97;;
8572;SDS011;4324;42.012;24.872;2023-05-10T02:45:05;10.00;;;9.03;;
8572;SDS011;4324;42.012;24.872;2023-05-10T02:47:37;12.03;;;9.20;;
8572;SDS011;4324;42.012;24.872;2023-05-10T02:50:04;10.10;;;9.10;;
8572;SDS011;4324;42.012;24.872;2023-05-10T02:52:36;11.57;;;9.40;;
8572;SDS011;4324;42.012;24.872;2023-05-10T02:55:07;14.13;;;9.17;;
8572;SDS011;4324;42.012;24.872;2023-05-10T02:57:38;10.27;;;9.17;;
8572;SDS011;4324;42.012;24.872;2023-05-10T03:00:08;12.10;;;9.77;;
8572;SDS011;4324;42.012;24.872;2023-05-10T03:02:35;10.33;;;9.23;;
8572;SDS011;4324;42.012;24.872;2023-05-10T03:05:03;10.60;;;9.50;;
8572;SDS011;4324;42.012;24.872;2023-05-10T03:07:31;10.87;;;9.80;;
8572;SDS011;4324;42.012;24.872;2023-05-10T03:09:59;10.30;;;9.37;;
8572;SDS011;4324;42.012;24.872;2023-05-10T03:12:29;11.80;;;9.43;;
8572;SDS011;4324;42.012;24.872;2023-05-10T03:15:07;10.17;;;9.10;;
8572;SDS011;4324;42.012;24.872;2023-05-10T03:17:41;12.33;;;9.83;;
8572;SDS011;4324;42.012;24.872;2023-05-10T03:20:16;14.13;;;10.13;;
8572;SDS011;4324;42.012;24.872;2023-05-10T03:22:51;11.33;;;10.27;;
8572;SDS011;4324;42.012;24.872;2023-05-10T03:25:19;11.73;;;9.97;;
8572;SDS011;4324;42.012;24.872;2023-05-10T03:27:49;11.70;;;10.50;;
8572;SDS011;4324;42.012;24.872;2023-05-10T03:30:16;10.57;;;9.53;;
8572;SDS011;4324;42.012;24.872;2023-05-10T03:32:45;13.00;;;10.03;;
8572;SDS011;4324;42.012;24.872;2023-05-10T03:35:12;11.47;;;10.20;;
8572;SDS011;4324;42.012;24.872;2023-05-10T03:37:40;11.23;;;10.03;;
8572;SDS011;4324;42.012;24.872;2023-05-10T03:40:09;11.03;;;9.67;;
8572;SDS011;4324;42.012;24.872;2023-05-10T03:42:36;12.53;;;11.20;;
8572;SDS011;4324;42.012;24.872;2023-05-10T03:45:03;16.13;;;14.63;;
8572;SDS011;4324;42.012;24.872;2023-05-10T03:47:31;18.50;;;16.67;;
8572;SDS011;4324;42.012;24.872;2023-05-10T03:49:58;19.77;;;17.60;;
8572;SDS011;4324;42.012;24.872;2023-05-10T03:52:24;15.70;;;14.00;;
8572;SDS011;4324;42.012;24.872;2023-05-10T03:54:51;15.00;;;13.33;;
8572;SDS011;4324;42.012;24.872;2023-05-10T03:57:20;13.57;;;12.27;;
8572;SDS011;4324;42.012;24.872;2023-05-10T03:59:47;14.57;;;12.60;;
8572;SDS011;4324;42.012;24.872;2023-05-10T04:02:14;13.50;;;11.50;;
8572;SDS011;4324;42.012;24.872;2023-05-10T04:04:41;12.20;;;11.00;;
8572;SDS011;4324;42.012;24.872;2023-05-10T04:07:08;13.40;;;11.57;;
8572;SDS011;4324;42.012;24.872;2023-05-10T04:09:35;14.63;;;12.53;;
8572;SDS011;4324;42.012;24.872;2023-05-10T04:12:02;11.30;;;10.20;;
8572;SDS011;4324;42.012;24.872;2023-05-10T04:14:31;12.97;;;10.63;;
8572;SDS011;4324;42.012;24.872;2023-05-10T04:16:58;11.83;;;10.63;;
8572;SDS011;4324;42.012;24.872;2023-05-10T04:19:28;11.40;;;10.27;;
8572;SDS011;4324;42.012;24.872;2023-05-10T04:21:55;12.70;;;11.43;;
8572;SDS011;4324;42.012;24.872;2023-05-10T04:24:22;12.10;;;10.63;;
8572;SDS011;4324;42.012;24.872;2023-05-10T04:26:49;14.33;;;10.73;;
8572;SDS011;4324;42.012;24.872;2023-05-10T04:29:16;11.20;;;10.03;;
8572;SDS011;4324;42.012;24.872;2023-05-10T04:31:45;13.17;;;11.60;;
8572;SDS011;4324;42.012;24.872;2023-05-10T04:34:11;14.17;;;10.70;;
8572;SDS011;4324;42.012;24.872;2023-05-10T04:36:38;12.97;;;11.77;;
8572;SDS011;4324;42.012;24.872;2023-05-10T04:39:05;20.40;;;13.90;;
8572;SDS011;4324;42.012;24.872;2023-05-10T04:41:32;13.27;;;11.23;;
8572;SDS011;4324;42.012;24.872;2023-05-10T04:43:59;13.13;;;10.43;;
8572;SDS011;4324;42.012;24.872;2023-05-10T04:46:26;12.37;;;10.00;;
8572;SDS011;4324;42.012;24.872;2023-05-10T04:48:54;12.37;;;11.07;;
8572;SDS011;4324;42.012;24.872;2023-05-10T04:51:21;11.30;;;10.30;;
8572;SDS011;4324;42.012;24.872;2023-05-10T04:53:48;12.90;;;10.67;;
8572;SDS011;4324;42.012;24.872;2023-05-10T04:56:15;13.20;;;10.53;;
8572;SDS011;4324;42.012;24.872;2023-05-10T04:58:42;12.20;;;10.97;;
8572;SDS011;4324;42.012;24.872;2023-05-10T05:01:09;12.53;;;10.70;;
8572;SDS011;4324;42.012;24.872;2023-05-10T05:03:36;11.97;;;9.80;;
8572;SDS011;4324;42.012;24.872;2023-05-10T05:06:05;12.40;;;9.60;;
8572;SDS011;4324;42.012;24.872;2023-05-10T05:08:32;11.10;;;9.83;;
8572;SDS011;4324;42.012;24.872;2023-05-10T05:10:59;11.73;;;9.57;;
8572;SDS011;4324;42.012;24.872;2023-05-10T05:13:26;11.47;;;10.10;;
8572;SDS011;4324;42.012;24.872;2023-05-10T05:15:52;15.47;;;10.20;;
8572;SDS011;4324;42.012;24.872;2023-05-10T05:18:19;14.07;;;11.83;;
8572;SDS011;4324;42.012;24.872;2023-05-10T05:20:46;16.43;;;12.70;;
8572;SDS011;4324;42.012;24.872;2023-05-10T05:23:15;15.50;;;10.13;;
8572;SDS011;4324;42.012;24.872;2023-05-10T05:25:42;13.77;;;10.40;;
8572;SDS011;4324;42.012;24.872;2023-05-10T05:28:09;12.83;;;10.17;;
8572;SDS011;4324;42.012;24.872;2023-05-10T05:30:36;15.43;;;9.90;;
8572;SDS011;4324;42.012;24.872;2023-05-10T05:33:03;11.73;;;10.60;;
8572;SDS011;4324;42.012;24.872;2023-05-10T05:35:30;15.43;;;10.27;;
8572;SDS011;4324;42.012;24.872;2023-05-10T05:37:57;13.27;;;10.77;;
8572;SDS011;4324;42.012;24.872;2023-05-10T05:40:26;13.70;;;10.67;;
8572;SDS011;4324;42.012;24.872;2023-05-10T05:42:53;14.07;;;10.90;;
8572;SDS011;4324;42.012;24.872;2023-05-10T05:45:20;11.87;;;10.57;;
8572;SDS011;4324;42.012;24.872;2023-05-10T05:47:47;16.13;;;12.60;;
8572;SDS011;4324;42.012;24.872;2023-05-10T05:50:14;13.60;;;11.30;;
8572;SDS011;4324;42.012;24.872;2023-05-10T05:52:41;12.70;;;11.27;;
8572;SDS011;4324;42.012;24.872;2023-05-10T05:55:08;15.37;;;13.77;;
8572;SDS011;4324;42.012;24.872;2023-05-10T05:57:38;23.33;;;15.13;;
8572;SDS011;4324;42.012;24.872;2023-05-10T06:00:06;17.30;;;12.07;;
8572;SDS011;4324;42.012;24.872;2023-05-10T06:02:33;14.57;;;10.67;;
8572;SDS011;4324;42.012;24.872;2023-05-10T06:05:00;12.60;;;9.87;;
8572;SDS011;4324;42.012;24.872;2023-05-10T06:07:28;12.57;;;9.27;;
8572;SDS011;4324;42.012;24.872;2023-05-10T06:09:54;11.07;;;8.97;;
8572;SDS011;4324;42.012;24.872;2023-05-10T06:12:21;30.53;;;13.40;;
8572;SDS011;4324;42.012;24.872;2023-05-10T06:14:53;12.10;;;9.23;;
8572;SDS011;4324;42.012;24.872;2023-05-10T06:17:20;12.30;;;8.53;;
8572;SDS011;4324;42.012;24.872;2023-05-10T06:19:48;9.53;;;7.50;;
8572;SDS011;4324;42.012;24.872;2023-05-10T06:22:15;9.80;;;8.97;;
8572;SDS011;4324;42.012;24.872;2023-05-10T06:24:42;11.47;;;9.87;;
8572;SDS011;4324;42.012;24.872;2023-05-10T06:27:08;13.40;;;10.40;;
8572;SDS011;4324;42.012;24.872;2023-05-10T06:29:35;12.43;;;9.73;;
8572;SDS011;4324;42.012;24.872;2023-05-10T06:32:04;11.23;;;10.10;;
8572;SDS011;4324;42.012;24.872;2023-05-10T06:34:31;14.43;;;9.20;;
8572;SDS011;4324;42.012;24.872;2023-05-10T06:36:58;13.67;;;11.00;;
8572;SDS011;4324;42.012;24.872;2023-05-10T06:39:25;19.27;;;14.87;;
8572;SDS011;4324;42.012;24.872;2023-05-10T06:41:52;21.43;;;18.43;;
8572;SDS011;4324;42.012;24.872;2023-05-10T06:44:19;31.47;;;21.90;;
8572;SDS011;4324;42.012;24.872;2023-05-10T06:46:46;21.87;;;17.60;;
8572;SDS011;4324;42.012;24.872;2023-05-10T06:49:15;18.73;;;15.67;;
8572;SDS011;4324;42.012;24.872;2023-05-10T06:51:42;19.93;;;17.03;;
8572;SDS011;4324;42.012;24.872;2023-05-10T06:54:09;13.70;;;12.30;;
8572;SDS011;4324;42.012;24.872;2023-05-10T06:56:36;16.47;;;13.77;;
8572;SDS011;4324;42.012;24.872;2023-05-10T06:59:03;21.63;;;18.23;;
8572;SDS011;4324;42.012;24.872;2023-05-10T07:01:30;13.30;;;11.90;;
8572;SDS011;4324;42.012;24.872;2023-05-10T07:03:57;15.03;;;13.20;;
8572;SDS011;4324;42.012;24.872;2023-05-10T07:06:25;15.80;;;11.03;;
8572;SDS011;4324;42.012;24.872;2023-05-10T07:08:52;18.93;;;12.77;;
8572;SDS011;4324;42.012;24.872;2023-05-10T07:11:19;13.50;;;11.03;;
8572;SDS011;4324;42.012;24.872;2023-05-10T07:13:46;11.77;;;9.77;;
8572;SDS011;4324;42.012;24.872;2023-05-10T07:16:13;18.63;;;14.87;;
8572;SDS011;4324;42.012;24.872;2023-05-10T07:18:40;27.47;;;20.03;;
8572;SDS011;4324;42.012;24.872;2023-05-10T07:21:08;12.33;;;9.40;;
8572;SDS011;4324;42.012;24.872;2023-05-10T07:23:36;9.73;;;8.57;;
8572;SDS011;4324;42.012;24.872;2023-05-10T07:26:03;20.03;;;18.07;;
8572;SDS011;4324;42.012;24.872;2023-05-10T07:28:30;18.73;;;14.13;;
8572;SDS011;4324;42.012;24.872;2023-05-10T07:30:57;11.70;;;7.50;;
8572;SDS011;4324;42.012;24.872;2023-05-10T07:33:24;10.60;;;9.50;;
8572;SDS011;4324;42.012;24.872;2023-05-10T07:35:51;12.47;;;10.93;;
8572;SDS011;4324;42.012;24.872;2023-05-10T07:38:18;8.97;;;8.07;;
8572;SDS011;4324;42.012;24.872;2023-05-10T07:40:46;10.27;;;8.63;;
8572;SDS011;4324;42.012;24.872;2023-05-10T07:43:13;10.20;;;8.17;;
8572;SDS011;4324;42.012;24.872;2023-05-10T07:45:40;9.07;;;7.70;;
8572;SDS011;4324;42.012;24.872;2023-05-10T07:48:07;7.97;;;6.67;;
8572;SDS011;4324;42.012;24.872;2023-05-10T07:50:34;7.50;;;6.67;;
8572;SDS011;4324;42.012;24.872;2023-05-10T07:53:01;9.97;;;8.97;;
8572;SDS011;4324;42.012;24.872;2023-05-10T07:55:28;14.17;;;11.70;;
8572;SDS011;4324;42.012;24.872;2023-05-10T07:57:57;9.53;;;8.30;;
8572;SDS011;4324;42.012;24.872;2023-05-10T08:00:26;19.13;;;15.93;;
8572;SDS011;4324;42.012;24.872;2023-05-10T08:02:53;19.57;;;16.27;;
8572;SDS011;4324;42.012;24.872;2023-05-10T08:05:20;18.70;;;15.50;;
8572;SDS011;4324;42.012;24.872;2023-05-10T08:07:47;19.40;;;15.33;;
8572;SDS011;4324;42.012;24.872;2023-05-10T08:10:14;10.97;;;8.77;;
8572;SDS011;4324;42.012;24.872;2023-05-10T08:12:41;14.13;;;12.77;;
8572;SDS011;4324;42.012;24.872;2023-05-10T08:15:09;18.67;;;15.80;;
8572;SDS011;4324;42.012;24.872;2023-05-10T08:17:37;16.97;;;13.97;;
8572;SDS011;4324;42.012;24.872;2023-05-10T08:20:08;15.67;;;14.03;;
8572;SDS011;4324;42.012;24.872;2023-05-10T08:22:37;18.13;;;13.93;;
8572;SDS011;4324;42.012;24.872;2023-05-10T08:25:04;13.97;;;12.33;;
8572;SDS011;4324;42.012;24.872;2023-05-10T08:27:32;28.17;;;21.90;;
8572;SDS011;4324;42.012;24.872;2023-05-10T08:29:59;20.80;;;15.07;;
8572;SDS011;4324;42.012;24.872;2023-05-10T08:32:27;26.57;;;22.63;;
8572;SDS011;4324;42.012;24.872;2023-05-10T08:34:54;16.63;;;13.60;;
8572;SDS011;4324;42.012;24.872;2023-05-10T08:37:22;22.63;;;20.17;;
8572;SDS011;4324;42.012;24.872;2023-05-10T08:39:49;20.03;;;17.90;;
8572;SDS011;4324;42.012;24.872;2023-05-10T08:42:18;14.97;;;11.77;;
8572;SDS011;4324;42.012;24.872;2023-05-10T08:44:49;9.37;;;8.47;;
8572;SDS011;4324;42.012;24.872;2023-05-10T08:47:17;18.90;;;16.87;;
8572;SDS011;4324;42.012;24.872;2023-05-10T08:49:47;29.87;;;26.63;;
8572;SDS011;4324;42.012;24.872;2023-05-10T08:52:16;13.67;;;12.23;;
8572;SDS011;4324;42.012;24.872;2023-05-10T08:54:44;30.03;;;25.43;;
8572;SDS011;4324;42.012;24.872;2023-05-10T08:57:11;19.17;;;17.27;;
8572;SDS011;4324;42.012;24.872;2023-05-10T08:59:37;17.30;;;15.50;;
8572;SDS011;4324;42.012;24.872;2023-05-10T09:02:05;12.00;;;9.50;;
8572;SDS011;4324;42.012;24.872;2023-05-10T09:04:34;18.80;;;16.83;;
8572;SDS011;4324;42.012;24.872;2023-05-10T09:07:03;20.43;;;10.47;;
8572;SDS011;4324;42.012;24.872;2023-05-10T09:09:30;10.43;;;9.37;;
8572;SDS011;4324;42.012;24.872;2023-05-10T09:11:57;15.13;;;11.33;;
8572;SDS011;4324;42.012;24.872;2023-05-10T09:14:24;9.13;;;8.20;;
8572;SDS011;4324;42.012;24.872;2023-05-10T09:16:52;11.57;;;10.33;;
8572;SDS011;4324;42.012;24.872;2023-05-10T09:19:20;11.13;;;8.63;;
8572;SDS011;4324;42.012;24.872;2023-05-10T09:21:47;8.00;;;6.63;;
8572;SDS011;4324;42.012;24.872;2023-05-10T09:24:16;12.27;;;7.53;;
8572;SDS011;4324;42.012;24.872;2023-05-10T09:26:45;8.00;;;7.40;;
8572;SDS011;4324;42.012;24.872;2023-05-10T09:29:14;11.07;;;9.37;;
8572;SDS011;4324;42.012;24.872;2023-05-10T09:31:45;7.67;;;6.93;;
8572;SDS011;4324;42.012;24.872;2023-05-10T09:34:16;6.67;;;5.63;;
8572;SDS011;4324;42.012;24.872;2023-05-10T09:36:51;8.63;;;6.13;;
8572;SDS011;4324;42.012;24.872;2023-05-10T09:39:21;7.20;;;6.60;;
8572;SDS011;4324;42.012;24.872;2023-05-10T09:41:58;6.83;;;6.23;;
8572;SDS011;4324;42.012;24.872;2023-05-10T09:44:26;7.93;;;6.93;;
8572;SDS011;4324;42.012;24.872;2023-05-10T09:46:53;6.83;;;5.87;;
8572;SDS011;4324;42.012;24.872;2023-05-10T09:49:20;7.47;;;6.33;;
8572;SDS011;4324;42.012;24.872;2023-05-10T09:51:50;6.83;;;6.23;;
8572;SDS011;4324;42.012;24.872;2023-05-10T09:54:27;8.47;;;6.83;;
8572;SDS011;4324;42.012;24.872;2023-05-10T09:56:55;10.97;;;8.23;;
8572;SDS011;4324;42.012;24.872;2023-05-10T09:59:23;9.13;;;8.20;;
8572;SDS011;4324;42.012;24.872;2023-05-10T10:01:52;8.17;;;7.37;;
8572;SDS011;4324;42.012;24.872;2023-05-10T10:04:19;10.23;;;9.03;;
8572;SDS011;4324;42.012;24.872;2023-05-10T10:06:46;10.47;;;9.43;;
8572;SDS011;4324;42.012;24.872;2023-05-10T10:09:25;8.57;;;7.73;;
8572;SDS011;4324;42.012;24.872;2023-05-10T10:11:54;7.63;;;6.93;;
8572;SDS011;4324;42.012;24.872;2023-05-10T10:14:21;6.57;;;6.03;;
8572;SDS011;4324;42.012;24.872;2023-05-10T10:16:49;6.37;;;5.83;;
8572;SDS011;4324;42.012;24.872;2023-05-10T10:19:16;7.83;;;7.07;;
8572;SDS011;4324;42.012;24.872;2023-05-10T10:21:43;14.00;;;12.80;;
8572;SDS011;4324;42.012;24.872;2023-05-10T10:24:10;9.97;;;8.97;;
8572;SDS011;4324;42.012;24.872;2023-05-10T10:26:37;12.03;;;9.97;;
8572;SDS011;4324;42.012;24.872;2023-05-10T10:29:11;10.80;;;9.73;;
8572;SDS011;4324;42.012;24.872;2023-05-10T10:31:45;6.47;;;5.97;;
8572;SDS011;4324;42.012;24.872;2023-05-10T10:34:22;8.13;;;7.37;;
8572;SDS011;4324;42.012;24.872;2023-05-10T10:36:53;7.80;;;7.20;;
8572;SDS011;4324;42.012;24.872;2023-05-10T10:39:23;9.80;;;8.83;;
8572;SDS011;4324;42.012;24.872;2023-05-10T10:41:52;9.33;;;8.37;;
8572;SDS011;4324;42.012;24.872;2023-05-10T10:44:34;7.03;;;6.43;;
8572;SDS011;4324;42.012;24.872;2023-05-10T10:47:04;11.43;;;10.43;;
8572;SDS011;4324;42.012;24.872;2023-05-10T10:49:37;7.40;;;6.63;;
8572;SDS011;4324;42.012;24.872;2023-05-10T10:52:15;6.50;;;5.90;;
8572;SDS011;4324;42.012;24.872;2023-05-10T10:54:49;10.93;;;9.97;;
8572;SDS011;4324;42.012;24.872;2023-05-10T10:57:18;9.40;;;6.67;;
8572;SDS011;4324;42.012;24.872;2023-05-10T10:59:49;9.73;;;8.37;;
8572;SDS011;4324;42.012;24.872;2023-05-10T11:08:18;8.50;;;7.70;;
8572;SDS011;4324;42.012;24.872;2023-05-10T11:13:37;10.87;;;9.10;;
8572;SDS011;4324;42.012;24.872;2023-05-10T11:16:17;6.43;;;5.63;;
8572;SDS011;4324;42.012;24.872;2023-05-10T11:18:52;8.57;;;7.73;;
8572;SDS011;4324;42.012;24.872;2023-05-10T11:21:20;7.10;;;6.50;;
8572;SDS011;4324;42.012;24.872;2023-05-10T11:23:48;8.97;;;7.87;;
8572;SDS011;4324;42.012;24.872;2023-05-10T11:26:16;8.43;;;7.47;;
8572;SDS011;4324;42.012;24.872;2023-05-10T11:28:43;7.43;;;6.73;;
8572;SDS011;4324;42.012;24.872;2023-05-10T11:31:13;9.10;;;8.20;;
8572;SDS011;4324;42.012;24.872;2023-05-10T11:33:45;9.53;;;8.40;;
8572;SDS011;4324;42.012;24.872;2023-05-10T11:36:14;9.83;;;7.40;;
8572;SDS011;4324;42.012;24.872;2023-05-10T11:38:42;11.10;;;7.40;;
8572;SDS011;4324;42.012;24.872;2023-05-10T11:41:10;8.67;;;6.67;;
8572;SDS011;4324;42.012;24.872;2023-05-10T11:43:38;8.87;;;7.70;;
8572;SDS011;4324;42.012;24.872;2023-05-10T11:46:06;9.47;;;7.93;;
8572;SDS011;4324;42.012;24.872;2023-05-10T11:48:33;8.23;;;7.43;;
8572;SDS011;4324;42.012;24.872;2023-05-10T11:51:02;8.20;;;7.50;;
8572;SDS011;4324;42.012;24.872;2023-05-10T11:53:29;14.50;;;13.10;;
8572;SDS011;4324;42.012;24.872;2023-05-10T11:56:02;8.73;;;7.90;;
8572;SDS011;4324;42.012;24.872;2023-05-10T11:58:30;9.07;;;7.77;;
8572;SDS011;4324;42.012;24.872;2023-05-10T12:00:57;7.50;;;6.90;;
8572;SDS011;4324;42.012;24.872;2023-05-10T12:03:25;9.40;;;8.50;;
8572;SDS011;4324;42.012;24.872;2023-05-10T12:05:51;9.90;;;8.97;;
8572;SDS011;4324;42.012;24.872;2023-05-10T12:08:21;8.57;;;7.80;;
8572;SDS011;4324;42.012;24.872;2023-05-10T12:10:49;9.13;;;8.27;;
8572;SDS011;4324;42.012;24.872;2023-05-10T12:13:17;8.87;;;8.03;;
8572;SDS011;4324;42.012;24.872;2023-05-10T12:15:45;9.50;;;8.80;;
8572;SDS011;4324;42.012;24.872;2023-05-10T12:18:13;11.00;;;10.00;;
8572;SDS011;4324;42.012;24.872;2023-05-10T12:20:40;8.73;;;8.03;;
8572;SDS011;4324;42.012;24.872;2023-05-10T12:23:08;10.20;;;9.17;;
8572;SDS011;4324;42.012;24.872;2023-05-10T12:25:37;10.93;;;9.93;;
8572;SDS011;4324;42.012;24.872;2023-05-10T12:28:05;10.87;;;8.20;;
8572;SDS011;4324;42.012;24.872;2023-05-10T12:30:34;17.27;;;15.87;;
8572;SDS011;4324;42.012;24.872;2023-05-10T12:33:03;10.90;;;9.80;;
8572;SDS011;4324;42.012;24.872;2023-05-10T12:35:43;11.37;;;10.37;;
8572;SDS011;4324;42.012;24.872;2023-05-10T12:38:26;11.90;;;10.80;;
8572;SDS011;4324;42.012;24.872;2023-05-10T12:40:57;9.90;;;8.90;;
8572;SDS011;4324;42.012;24.872;2023-05-10T12:43:25;15.87;;;10.33;;
8572;SDS011;4324;42.012;24.872;2023-05-10T12:45:52;9.10;;;8.27;;
8572;SDS011;4324;42.012;24.872;2023-05-10T12:48:19;7.80;;;7.30;;
8572;SDS011;4324;42.012;24.872;2023-05-10T12:50:46;9.50;;;8.53;;
8572;SDS011;4324;42.012;24.872;2023-05-10T12:53:13;10.90;;;10.07;;
8572;SDS011;4324;42.012;24.872;2023-05-10T12:55:41;12.70;;;11.17;;
8572;SDS011;4324;42.012;24.872;2023-05-10T12:58:09;8.23;;;7.50;;
8572;SDS011;4324;42.012;24.872;2023-05-10T13:00:37;9.20;;;8.40;;
8572;SDS011;4324;42.012;24.872;2023-05-10T13:03:04;8.70;;;7.80;;
8572;SDS011;4324;42.012;24.872;2023-05-10T13:05:31;9.23;;;8.30;;
8572;SDS011;4324;42.012;24.872;2023-05-10T13:07:58;8.47;;;7.53;;
8572;SDS011;4324;42.012;24.872;2023-05-10T13:10:25;12.23;;;10.97;;
8572;SDS011;4324;42.012;24.872;2023-05-10T13:12:52;16.83;;;13.47;;
8572;SDS011;4324;42.012;24.872;2023-05-10T13:15:20;15.57;;;13.97;;
8572;SDS011;4324;42.012;24.872;2023-05-10T13:17:47;9.33;;;8.40;;
8572;SDS011;4324;42.012;24.872;2023-05-10T13:20:14;10.40;;;9.50;;
8572;SDS011;4324;42.012;24.872;2023-05-10T13:22:42;8.47;;;6.53;;
8572;SDS011;4324;42.012;24.872;2023-05-10T13:25:10;10.20;;;7.93;;
8572;SDS011;4324;42.012;24.872;2023-05-10T13:27:37;10.07;;;7.50;;
8572;SDS011;4324;42.012;24.872;2023-05-10T13:30:04;10.40;;;8.87;;
8572;SDS011;4324;42.012;24.872;2023-05-10T13:32:33;8.20;;;7.60;;
8572;SDS011;4324;42.012;24.872;2023-05-10T13:35:01;9.37;;;8.47;;
8572;SDS011;4324;42.012;24.872;2023-05-10T13:37:28;7.43;;;6.83;;
8572;SDS011;4324;42.012;24.872;2023-05-10T13:39:55;9.10;;;7.93;;
8572;SDS011;4324;42.012;24.872;2023-05-10T13:42:22;12.17;;;10.40;;
8572;SDS011;4324;42.012;24.872;2023-05-10T13:44:50;10.43;;;9.33;;
8572;SDS011;4324;42.012;24.872;2023-05-10T13:47:17;8.90;;;8.10;;
8572;SDS011;4324;42.012;24.872;2023-05-10T13:49:45;9.63;;;8.73;;
8572;SDS011;4324;42.012;24.872;2023-05-10T13:52:12;8.50;;;7.80;;
8572;SDS011;4324;42.012;24.872;2023-05-10T13:54:39;11.80;;;10.70;;
8572;SDS011;4324;42.012;24.872;2023-05-10T13:57:06;9.23;;;8.33;;
8572;SDS011;4324;42.012;24.872;2023-05-10T13:59:37;6.87;;;6.37;;
8572;SDS011;4324;42.012;24.872;2023-05-10T14:02:03;8.37;;;7.33;;
8572;SDS011;4324;42.012;24.872;2023-05-10T14:04:30;7.60;;;7.00;;
8572;SDS011;4324;42.012;24.872;2023-05-10T14:06:59;7.13;;;6.47;;
8572;SDS011;4324;42.012;24.872;2023-05-10T14:09:26;8.47;;;7.63;;
8572;SDS011;4324;42.012;24.872;2023-05-10T14:11:53;7.80;;;6.90;;
8572;SDS011;4324;42.012;24.872;2023-05-10T14:14:21;13.20;;;10.80;;
8572;SDS011;4324;42.012;24.872;2023-05-10T14:16:48;7.90;;;7.30;;
8572;SDS011;4324;42.012;24.872;2023-05-10T14:19:14;9.50;;;8.60;;
8572;SDS011;4324;42.012;24.872;2023-05-10T14:21:41;12.90;;;11.20;;
8572;SDS011;4324;42.012;24.872;2023-05-10T14:24:10;10.30;;;8.90;;
8572;SDS011;4324;42.012;24.872;2023-05-10T14:26:37;7.40;;;6.80;;
8572;SDS011;4324;42.012;24.872;2023-05-10T14:29:03;7.47;;;6.77;;
8572;SDS011;4324;42.012;24.872;2023-05-10T14:31:31;7.33;;;6.63;;
8572;SDS011;4324;42.012;24.872;2023-05-10T14:33:58;7.97;;;7.27;;
8572;SDS011;4324;42.012;24.872;2023-05-10T14:36:24;8.47;;;7.27;;
8572;SDS011;4324;42.012;24.872;2023-05-10T14:38:52;9.83;;;8.40;;
8572;SDS011;4324;42.012;24.872;2023-05-10T14:41:20;8.37;;;7.60;;
8572;SDS011;4324;42.012;24.872;2023-05-10T14:43:49;7.87;;;7.13;;
8572;SDS011;4324;42.012;24.872;2023-05-10T14:46:16;9.77;;;7.63;;
8572;SDS011;4324;42.012;24.872;2023-05-10T14:48:42;10.13;;;8.00;;
8572;SDS011;4324;42.012;24.872;2023-05-10T14:51:09;8.03;;;7.30;;
8572;SDS011;4324;42.012;24.872;2023-05-10T14:53:36;9.73;;;7.73;;
8572;SDS011;4324;42.012;24.872;2023-05-10T14:56:03;7.70;;;6.53;;
8572;SDS011;4324;42.012;24.872;2023-05-10T14:58:32;11.03;;;10.13;;
8572;SDS011;4324;42.012;24.872;2023-05-10T15:00:59;10.80;;;9.80;;
8572;SDS011;4324;42.012;24.872;2023-05-10T15:03:26;8.43;;;7.60;;
8572;SDS011;4324;42.012;24.872;2023-05-10T15:05:53;7.47;;;6.87;;
8572;SDS011;4324;42.012;24.872;2023-05-10T15:08:21;8.13;;;7.33;;
8572;SDS011;4324;42.012;24.872;2023-05-10T15:10:49;8.07;;;7.20;;
8572;SDS011;4324;42.012;24.872;2023-05-10T15:13:16;7.03;;;6.40;;